sensor_id;sensor_type;location;lat;lon;timestamp;P1;durP1;ratioP1;P2;durP2;ratioP2
1366;SDS011;16877;48.810;9.282;2023-11-21T00:00:18;4.60;;;2.30;;
1366;SDS011;16877;48.810;9.282;2023-11-21T00:02:45;4.93;;;2.20;;
1366;SDS011;16877;48.810;9.282;2023-11-21T00:05:13;6.63;;;2.20;;
1366;SDS011;16877;48.810;9.282;2023-11-21T00:07:41;5.27;;;2.10;;
1366;SDS011;16877;48.810;9.282;2023-11-21T00:10:08;4.77;;;2.43;;
1366;SDS011;16877;48.810;9.282;2023-11-21T00:12:36;4.00;;;2.40;;
1366;SDS011;16877;48.810;9.282;2023-11-21T00:15:05;5.63;;;2.83;;
1366;SDS011;16877;48.810;9.282;2023-11-21T00:17:34;5.50;;;2.50;;
1366;SDS011;16877;48.810;9.282;2023-11-21T00:20:01;5.13;;;2.40;;
1366;SDS011;16877;48.810;9.282;2023-11-21T00:22:31;7.73;;;3.17;;
1366;SDS011;16877;48.810;9.282;2023-11-21T00:24:58;4.57;;;2.30;;
1366;SDS011;16877;48.810;9.282;2023-11-21T00:44:17;8.20;;;2.37;;
1366;SDS011;16877;48.810;9.282;2023-11-21T00:46:43;6.67;;;2.37;;
1366;SDS011;16877;48.810;9.282;2023-11-21T00:49:10;4.13;;;1.57;;
1366;SDS011;16877;48.810;9.282;2023-11-21T00:51:37;4.43;;;2.13;;
1366;SDS011;16877;48.810;9.282;2023-11-21T00:54:04;4.40;;;2.43;;
1366;SDS011;16877;48.810;9.282;2023-11-21T00:56:31;6.43;;;2.80;;
1366;SDS011;16877;48.810;9.282;2023-11-21T00:58:59;5.87;;;2.23;;
1366;SDS011;16877;48.810;9.282;2023-11-21T01:01:27;6.40;;;2.60;;
1366;SDS011;16877;48.810;9.282;2023-11-21T01:03:53;3.87;;;2.07;;
1366;SDS011;16877;48.810;9.282;2023-11-21T01:06:20;9.40;;;3.03;;
1366;SDS011;16877;48.810;9.282;2023-11-21T01:08:46;4.43;;;1.97;;
1366;SDS011;16877;48.810;9.282;2023-11-21T01:11:13;5.90;;;2.40;;
1366;SDS011;16877;48.810;9.282;2023-11-21T01:13:40;5.80;;;2.00;;
1366;SDS011;16877;48.810;9.282;2023-11-21T01:16:08;6.93;;;2.27;;
1366;SDS011;16877;48.810;9.282;2023-11-21T01:18:36;7.37;;;2.57;;
1366;SDS011;16877;48.810;9.282;2023-11-21T01:21:03;5.60;;;2.37;;
1366;SDS011;16877;48.810;9.282;2023-11-21T01:23:30;5.30;;;2.57;;
1366;SDS011;16877;48.810;9.282;2023-11-21T01:25:57;4.27;;;1.83;;
1366;SDS011;16877;48.810;9.282;2023-11-21T01:28:29;4.10;;;2.00;;
1366;SDS011;16877;48.810;9.282;2023-11-21T01:30:57;4.33;;;1.90;;
1366;SDS011;16877;48.810;9.282;2023-11-21T01:33:24;4.37;;;2.03;;
1366;SDS011;16877;48.810;9.282;2023-11-21T01:35:52;5.30;;;2.60;;
1366;SDS011;16877;48.810;9.282;2023-11-21T01:38:20;3.90;;;2.10;;
1366;SDS011;16877;48.810;9.282;2023-11-21T01:40:47;6.77;;;2.43;;
1366;SDS011;16877;48.810;9.282;2023-11-21T01:43:14;4.50;;;2.10;;
1366;SDS011;16877;48.810;9.282;2023-11-21T01:45:41;5.13;;;2.30;;
1366;SDS011;16877;48.810;9.282;2023-11-21T01:48:10;4.80;;;2.57;;
1366;SDS011;16877;48.810;9.282;2023-11-21T01:50:37;5.17;;;1.93;;
1366;SDS011;16877;48.810;9.282;2023-11-21T01:53:05;4.83;;;1.63;;
1366;SDS011;16877;48.810;9.282;2023-11-21T01:55:32;4.87;;;1.87;;
1366;SDS011;16877;48.810;9.282;2023-11-21T01:57:59;5.57;;;2.10;;
1366;SDS011;16877;48.810;9.282;2023-11-21T02:00:26;4.50;;;2.03;;
1366;SDS011;16877;48.810;9.282;2023-11-21T02:02:54;5.20;;;1.73;;
1366;SDS011;16877;48.810;9.282;2023-11-21T02:05:21;7.37;;;2.20;;
1366;SDS011;16877;48.810;9.282;2023-11-21T02:07:48;4.00;;;2.17;;
1366;SDS011;16877;48.810;9.282;2023-11-21T02:10:18;3.93;;;1.43;;
1366;SDS011;16877;48.810;9.282;2023-11-21T02:12:48;3.90;;;2.00;;
1366;SDS011;16877;48.810;9.282;2023-11-21T02:15:15;4.83;;;1.97;;
1366;SDS011;16877;48.810;9.282;2023-11-21T02:17:45;4.37;;;1.97;;
1366;SDS011;16877;48.810;9.282;2023-11-21T02:20:14;4.53;;;2.17;;
1366;SDS011;16877;48.810;9.282;2023-11-21T02:22:42;4.10;;;1.70;;
1366;SDS011;16877;48.810;9.282;2023-11-21T02:25:12;3.50;;;1.87;;
1366;SDS011;16877;48.810;9.282;2023-11-21T02:27:39;4.07;;;1.90;;
1366;SDS011;16877;48.810;9.282;2023-11-21T02:30:07;5.90;;;1.33;;
1366;SDS011;16877;48.810;9.282;2023-11-21T02:32:37;2.33;;;1.00;;
1366;SDS011;16877;48.810;9.282;2023-11-21T02:35:05;4.30;;;1.50;;
1366;SDS011;16877;48.810;9.282;2023-11-21T02:37:33;4.43;;;1.40;;
1366;SDS011;16877;48.810;9.282;2023-11-21T02:40:00;4.07;;;1.33;;
1366;SDS011;16877;48.810;9.282;2023-11-21T02:42:30;2.37;;;1.33;;
1366;SDS011;16877;48.810;9.282;2023-11-21T02:44:56;2.33;;;1.23;;
1366;SDS011;16877;48.810;9.282;2023-11-21T02:47:23;5.90;;;1.60;;
1366;SDS011;16877;48.810;9.282;2023-11-21T02:49:50;3.33;;;1.30;;
1366;SDS011;16877;48.810;9.282;2023-11-21T02:52:17;3.77;;;1.30;;
1366;SDS011;16877;48.810;9.282;2023-11-21T02:54:44;3.27;;;1.40;;
1366;SDS011;16877;48.810;9.282;2023-11-21T02:57:10;3.37;;;1.70;;
1366;SDS011;16877;48.810;9.282;2023-11-21T02:59:38;3.47;;;1.43;;
1366;SDS011;16877;48.810;9.282;2023-11-21T03:02:05;3.60;;;1.10;;
1366;SDS011;16877;48.810;9.282;2023-11-21T03:04:33;3.17;;;1.37;;
1366;SDS011;16877;48.810;9.282;2023-11-21T03:07:00;5.13;;;1.80;;
1366;SDS011;16877;48.810;9.282;2023-11-21T03:09:27;4.60;;;1.50;;
1366;SDS011;16877;48.810;9.282;2023-11-21T03:11:53;3.23;;;1.77;;
1366;SDS011;16877;48.810;9.282;2023-11-21T03:14:20;2.90;;;1.17;;
1366;SDS011;16877;48.810;9.282;2023-11-21T03:16:48;3.40;;;1.47;;
1366;SDS011;16877;48.810;9.282;2023-11-21T03:19:15;3.77;;;1.70;;
1366;SDS011;16877;48.810;9.282;2023-11-21T03:21:42;2.90;;;1.20;;
1366;SDS011;16877;48.810;9.282;2023-11-21T03:24:09;3.97;;;1.30;;
1366;SDS011;16877;48.810;9.282;2023-11-21T03:26:35;3.90;;;1.30;;
1366;SDS011;16877;48.810;9.282;2023-11-21T03:29:03;3.90;;;1.40;;
1366;SDS011;16877;48.810;9.282;2023-11-21T03:31:30;2.83;;;1.10;;
1366;SDS011;16877;48.810;9.282;2023-11-21T03:33:58;3.53;;;1.40;;
1366;SDS011;16877;48.810;9.282;2023-11-21T03:36:25;4.40;;;2.03;;
1366;SDS011;16877;48.810;9.282;2023-11-21T03:38:51;2.33;;;0.90;;
1366;SDS011;16877;48.810;9.282;2023-11-21T03:41:18;2.93;;;1.30;;
1366;SDS011;16877;48.810;9.282;2023-11-21T03:43:45;2.80;;;1.30;;
1366;SDS011;16877;48.810;9.282;2023-11-21T03:46:12;3.70;;;1.40;;
1366;SDS011;16877;48.810;9.282;2023-11-21T03:48:38;2.87;;;1.40;;
1366;SDS011;16877;48.810;9.282;2023-11-21T03:51:07;3.30;;;1.40;;
1366;SDS011;16877;48.810;9.282;2023-11-21T03:53:33;2.60;;;1.20;;
1366;SDS011;16877;48.810;9.282;2023-11-21T03:56:01;3.63;;;1.30;;
1366;SDS011;16877;48.810;9.282;2023-11-21T03:58:28;3.77;;;1.10;;
1366;SDS011;16877;48.810;9.282;2023-11-21T04:00:55;3.00;;;1.53;;
1366;SDS011;16877;48.810;9.282;2023-11-21T04:03:22;3.53;;;1.50;;
1366;SDS011;16877;48.810;9.282;2023-11-21T04:05:49;3.80;;;1.50;;
1366;SDS011;16877;48.810;9.282;2023-11-21T04:08:17;3.03;;;1.50;;
1366;SDS011;16877;48.810;9.282;2023-11-21T04:10:43;3.17;;;0.80;;
1366;SDS011;16877;48.810;9.282;2023-11-21T04:13:10;2.77;;;1.07;;
1366;SDS011;16877;48.810;9.282;2023-11-21T04:15:37;3.30;;;1.17;;
1366;SDS011;16877;48.810;9.282;2023-11-21T04:18:03;2.33;;;1.10;;
1366;SDS011;16877;48.810;9.282;2023-11-21T04:20:30;3.20;;;1.20;;
1366;SDS011;16877;48.810;9.282;2023-11-21T04:22:57;3.30;;;1.20;;
1366;SDS011;16877;48.810;9.282;2023-11-21T04:25:25;2.60;;;1.40;;
1366;SDS011;16877;48.810;9.282;2023-11-21T04:27:52;2.53;;;1.23;;
1366;SDS011;16877;48.810;9.282;2023-11-21T04:30:19;1.80;;;0.90;;
1366;SDS011;16877;48.810;9.282;2023-11-21T04:32:45;2.63;;;1.13;;
1366;SDS011;16877;48.810;9.282;2023-11-21T04:35:12;3.00;;;1.13;;
1366;SDS011;16877;48.810;9.282;2023-11-21T04:37:40;3.57;;;1.27;;
1366;SDS011;16877;48.810;9.282;2023-11-21T04:40:07;2.37;;;1.17;;
1366;SDS011;16877;48.810;9.282;2023-11-21T04:42:36;2.87;;;1.30;;
1366;SDS011;16877;48.810;9.282;2023-11-21T04:45:03;2.63;;;1.17;;
1366;SDS011;16877;48.810;9.282;2023-11-21T04:47:33;3.90;;;1.40;;
1366;SDS011;16877;48.810;9.282;2023-11-21T04:50:00;2.20;;;0.87;;
1366;SDS011;16877;48.810;9.282;2023-11-21T04:52:28;2.00;;;0.70;;
1366;SDS011;16877;48.810;9.282;2023-11-21T04:54:55;1.90;;;0.87;;
1366;SDS011;16877;48.810;9.282;2023-11-21T04:57:23;2.03;;;0.80;;
1366;SDS011;16877;48.810;9.282;2023-11-21T04:59:51;1.60;;;0.60;;
1366;SDS011;16877;48.810;9.282;2023-11-21T05:02:18;2.03;;;0.70;;
1366;SDS011;16877;48.810;9.282;2023-11-21T05:04:45;2.40;;;0.90;;
1366;SDS011;16877;48.810;9.282;2023-11-21T05:07:12;2.70;;;1.17;;
1366;SDS011;16877;48.810;9.282;2023-11-21T05:09:41;2.03;;;1.00;;
1366;SDS011;16877;48.810;9.282;2023-11-21T05:12:09;2.77;;;1.17;;
1366;SDS011;16877;48.810;9.282;2023-11-21T05:14:36;2.50;;;1.30;;
1366;SDS011;16877;48.810;9.282;2023-11-21T05:17:04;2.73;;;1.37;;
1366;SDS011;16877;48.810;9.282;2023-11-21T05:19:32;2.60;;;1.20;;
1366;SDS011;16877;48.810;9.282;2023-11-21T05:21:59;2.43;;;1.10;;
1366;SDS011;16877;48.810;9.282;2023-11-21T05:24:26;3.00;;;1.43;;
1366;SDS011;16877;48.810;9.282;2023-11-21T05:26:53;3.33;;;1.10;;
1366;SDS011;16877;48.810;9.282;2023-11-21T05:29:21;3.90;;;1.20;;
1366;SDS011;16877;48.810;9.282;2023-11-21T05:31:48;3.47;;;0.90;;
1366;SDS011;16877;48.810;9.282;2023-11-21T05:34:16;2.73;;;1.00;;
1366;SDS011;16877;48.810;9.282;2023-11-21T05:36:43;6.27;;;1.17;;
1366;SDS011;16877;48.810;9.282;2023-11-21T05:39:10;3.30;;;1.10;;
1366;SDS011;16877;48.810;9.282;2023-11-21T05:41:37;4.77;;;1.20;;
1366;SDS011;16877;48.810;9.282;2023-11-21T05:44:04;3.43;;;1.10;;
1366;SDS011;16877;48.810;9.282;2023-11-21T05:46:31;2.40;;;0.67;;
1366;SDS011;16877;48.810;9.282;2023-11-21T05:48:58;4.23;;;1.17;;
1366;SDS011;16877;48.810;9.282;2023-11-21T05:51:36;2.70;;;0.97;;
1366;SDS011;16877;48.810;9.282;2023-11-21T05:54:03;5.97;;;1.07;;
1366;SDS011;16877;48.810;9.282;2023-11-21T05:56:30;2.53;;;1.10;;
1366;SDS011;16877;48.810;9.282;2023-11-21T05:58:56;3.37;;;1.33;;
1366;SDS011;16877;48.810;9.282;2023-11-21T06:01:23;2.77;;;1.30;;
1366;SDS011;16877;48.810;9.282;2023-11-21T06:03:53;4.07;;;1.40;;
1366;SDS011;16877;48.810;9.282;2023-11-21T06:06:19;2.43;;;1.30;;
1366;SDS011;16877;48.810;9.282;2023-11-21T06:08:51;3.67;;;1.87;;
1366;SDS011;16877;48.810;9.282;2023-11-21T06:11:17;2.70;;;1.10;;
1366;SDS011;16877;48.810;9.282;2023-11-21T06:13:44;4.40;;;1.60;;
1366;SDS011;16877;48.810;9.282;2023-11-21T06:16:11;3.10;;;1.43;;
1366;SDS011;16877;48.810;9.282;2023-11-21T06:18:40;2.73;;;1.57;;
1366;SDS011;16877;48.810;9.282;2023-11-21T06:21:09;3.60;;;1.30;;
1366;SDS011;16877;48.810;9.282;2023-11-21T06:23:35;5.00;;;1.93;;
1366;SDS011;16877;48.810;9.282;2023-11-21T06:26:04;3.77;;;2.27;;
1366;SDS011;16877;48.810;9.282;2023-11-21T06:28:31;5.03;;;1.93;;
1366;SDS011;16877;48.810;9.282;2023-11-21T06:30:58;4.47;;;1.80;;
1366;SDS011;16877;48.810;9.282;2023-11-21T06:33:29;4.23;;;2.10;;
1366;SDS011;16877;48.810;9.282;2023-11-21T06:35:56;4.17;;;1.40;;
1366;SDS011;16877;48.810;9.282;2023-11-21T06:38:23;2.50;;;1.23;;
1366;SDS011;16877;48.810;9.282;2023-11-21T06:40:50;3.70;;;1.47;;
1366;SDS011;16877;48.810;9.282;2023-11-21T06:43:18;4.43;;;1.43;;
1366;SDS011;16877;48.810;9.282;2023-11-21T06:45:46;2.73;;;1.33;;
1366;SDS011;16877;48.810;9.282;2023-11-21T06:48:14;3.27;;;1.50;;
1366;SDS011;16877;48.810;9.282;2023-11-21T06:50:41;4.43;;;1.77;;
1366;SDS011;16877;48.810;9.282;2023-11-21T06:53:07;3.50;;;1.13;;
1366;SDS011;16877;48.810;9.282;2023-11-21T06:55:34;2.10;;;1.10;;
1366;SDS011;16877;48.810;9.282;2023-11-21T06:58:01;2.10;;;1.10;;
1366;SDS011;16877;48.810;9.282;2023-11-21T07:00:31;2.73;;;1.43;;
1366;SDS011;16877;48.810;9.282;2023-11-21T07:02:58;3.10;;;1.43;;
1366;SDS011;16877;48.810;9.282;2023-11-21T07:05:25;2.60;;;1.60;;
1366;SDS011;16877;48.810;9.282;2023-11-21T07:07:52;2.23;;;1.03;;
1366;SDS011;16877;48.810;9.282;2023-11-21T07:10:19;3.33;;;1.50;;
1366;SDS011;16877;48.810;9.282;2023-11-21T07:12:45;2.70;;;1.40;;
1366;SDS011;16877;48.810;9.282;2023-11-21T07:15:12;2.53;;;1.17;;
1366;SDS011;16877;48.810;9.282;2023-11-21T07:17:40;3.30;;;1.33;;
1366;SDS011;16877;48.810;9.282;2023-11-21T07:20:08;2.17;;;1.20;;
1366;SDS011;16877;48.810;9.282;2023-11-21T07:22:36;2.80;;;1.33;;
1366;SDS011;16877;48.810;9.282;2023-11-21T07:25:03;2.33;;;1.27;;
1366;SDS011;16877;48.810;9.282;2023-11-21T07:27:30;3.07;;;1.30;;
1366;SDS011;16877;48.810;9.282;2023-11-21T07:29:58;2.40;;;1.30;;
1366;SDS011;16877;48.810;9.282;2023-11-21T07:32:25;2.50;;;1.30;;
1366;SDS011;16877;48.810;9.282;2023-11-21T07:34:53;2.90;;;1.37;;
1366;SDS011;16877;48.810;9.282;2023-11-21T07:37:22;1.97;;;1.00;;
1366;SDS011;16877;48.810;9.282;2023-11-21T07:39:49;2.40;;;1.23;;
1366;SDS011;16877;48.810;9.282;2023-11-21T07:42:20;2.30;;;1.23;;
1366;SDS011;16877;48.810;9.282;2023-11-21T07:44:47;2.97;;;1.50;;
1366;SDS011;16877;48.810;9.282;2023-11-21T07:47:15;2.90;;;1.10;;
1366;SDS011;16877;48.810;9.282;2023-11-21T07:49:42;2.30;;;1.20;;
1366;SDS011;16877;48.810;9.282;2023-11-21T07:52:11;3.37;;;1.43;;
1366;SDS011;16877;48.810;9.282;2023-11-21T07:54:37;2.23;;;1.17;;
1366;SDS011;16877;48.810;9.282;2023-11-21T07:57:04;2.20;;;1.10;;
1366;SDS011;16877;48.810;9.282;2023-11-21T07:59:31;2.47;;;1.40;;
1366;SDS011;16877;48.810;9.282;2023-11-21T08:01:58;2.37;;;1.27;;
1366;SDS011;16877;48.810;9.282;2023-11-21T08:04:24;3.07;;;1.37;;
1366;SDS011;16877;48.810;9.282;2023-11-21T08:06:51;3.30;;;1.47;;
1366;SDS011;16877;48.810;9.282;2023-11-21T08:09:19;4.40;;;1.60;;
1366;SDS011;16877;48.810;9.282;2023-11-21T08:11:48;3.50;;;1.10;;
1366;SDS011;16877;48.810;9.282;2023-11-21T08:14:17;4.20;;;1.50;;
1366;SDS011;16877;48.810;9.282;2023-11-21T08:16:43;3.97;;;1.50;;
1366;SDS011;16877;48.810;9.282;2023-11-21T08:19:10;2.40;;;1.40;;
1366;SDS011;16877;48.810;9.282;2023-11-21T08:21:37;4.03;;;1.63;;
1366;SDS011;16877;48.810;9.282;2023-11-21T08:24:05;4.53;;;1.67;;
1366;SDS011;16877;48.810;9.282;2023-11-21T08:26:37;5.60;;;1.70;;
1366;SDS011;16877;48.810;9.282;2023-11-21T08:29:03;3.30;;;1.60;;
1366;SDS011;16877;48.810;9.282;2023-11-21T08:31:32;2.87;;;1.63;;
1366;SDS011;16877;48.810;9.282;2023-11-21T08:33:58;3.30;;;1.27;;
1366;SDS011;16877;48.810;9.282;2023-11-21T08:36:27;2.83;;;1.30;;
1366;SDS011;16877;48.810;9.282;2023-11-21T08:38:56;5.43;;;1.60;;
1366;SDS011;16877;48.810;9.282;2023-11-21T08:41:23;3.60;;;1.60;;
1366;SDS011;16877;48.810;9.282;2023-11-21T08:43:51;2.70;;;1.70;;
1366;SDS011;16877;48.810;9.282;2023-11-21T08:46:18;5.67;;;1.53;;
1366;SDS011;16877;48.810;9.282;2023-11-21T08:48:45;5.50;;;1.20;;
1366;SDS011;16877;48.810;9.282;2023-11-21T08:51:12;2.17;;;1.17;;
1366;SDS011;16877;48.810;9.282;2023-11-21T08:53:39;2.30;;;1.03;;
1366;SDS011;16877;48.810;9.282;2023-11-21T08:56:06;3.00;;;1.30;;
1366;SDS011;16877;48.810;9.282;2023-11-21T08:58:34;2.90;;;1.50;;
1366;SDS011;16877;48.810;9.282;2023-11-21T09:01:03;3.20;;;1.27;;
1366;SDS011;16877;48.810;9.282;2023-11-21T09:03:31;3.60;;;1.30;;
1366;SDS011;16877;48.810;9.282;2023-11-21T09:05:59;3.80;;;1.50;;
1366;SDS011;16877;48.810;9.282;2023-11-21T09:08:26;2.90;;;1.30;;
1366;SDS011;16877;48.810;9.282;2023-11-21T09:10:53;2.73;;;1.10;;
1366;SDS011;16877;48.810;9.282;2023-11-21T09:13:20;2.67;;;1.30;;
1366;SDS011;16877;48.810;9.282;2023-11-21T09:15:47;2.33;;;1.13;;
1366;SDS011;16877;48.810;9.282;2023-11-21T09:18:16;2.10;;;1.23;;
1366;SDS011;16877;48.810;9.282;2023-11-21T09:20:43;2.80;;;1.40;;
1366;SDS011;16877;48.810;9.282;2023-11-21T09:23:10;3.37;;;1.50;;
1366;SDS011;16877;48.810;9.282;2023-11-21T09:25:36;2.67;;;1.17;;
1366;SDS011;16877;48.810;9.282;2023-11-21T09:28:03;2.77;;;1.60;;
1366;SDS011;16877;48.810;9.282;2023-11-21T09:30:33;2.57;;;1.03;;
1366;SDS011;16877;48.810;9.282;2023-11-21T09:32:59;2.13;;;0.90;;
1366;SDS011;16877;48.810;9.282;2023-11-21T09:35:28;2.63;;;1.23;;
1366;SDS011;16877;48.810;9.282;2023-11-21T09:37:55;3.13;;;1.03;;
1366;SDS011;16877;48.810;9.282;2023-11-21T09:40:22;2.00;;;1.00;;
1366;SDS011;16877;48.810;9.282;2023-11-21T09:42:49;2.00;;;0.93;;
1366;SDS011;16877;48.810;9.282;2023-11-21T09:45:21;2.60;;;1.20;;
1366;SDS011;16877;48.810;9.282;2023-11-21T09:47:52;2.30;;;0.80;;
1366;SDS011;16877;48.810;9.282;2023-11-21T09:50:19;2.37;;;0.90;;
1366;SDS011;16877;48.810;9.282;2023-11-21T09:52:49;2.10;;;1.00;;
1366;SDS011;16877;48.810;9.282;2023-11-21T09:55:26;2.27;;;1.03;;
1366;SDS011;16877;48.810;9.282;2023-11-21T09:57:55;2.87;;;1.20;;
1366;SDS011;16877;48.810;9.282;2023-11-21T10:00:22;2.27;;;1.10;;
1366;SDS011;16877;48.810;9.282;2023-11-21T10:02:49;3.10;;;1.20;;
1366;SDS011;16877;48.810;9.282;2023-11-21T10:05:18;2.73;;;0.93;;
1366;SDS011;16877;48.810;9.282;2023-11-21T10:07:44;2.33;;;1.40;;
1366;SDS011;16877;48.810;9.282;2023-11-21T10:10:22;3.53;;;1.20;;
1366;SDS011;16877;48.810;9.282;2023-11-21T10:12:51;3.60;;;1.40;;
1366;SDS011;16877;48.810;9.282;2023-11-21T10:15:21;2.50;;;1.30;;
1366;SDS011;16877;48.810;9.282;2023-11-21T10:17:50;2.20;;;1.17;;
1366;SDS011;16877;48.810;9.282;2023-11-21T10:20:19;2.87;;;1.33;;
1366;SDS011;16877;48.810;9.282;2023-11-21T10:22:46;2.40;;;1.47;;
1366;SDS011;16877;48.810;9.282;2023-11-21T10:25:13;2.30;;;1.20;;
1366;SDS011;16877;48.810;9.282;2023-11-21T10:27:41;2.40;;;1.77;;
1366;SDS011;16877;48.810;9.282;2023-11-21T10:30:09;3.47;;;2.10;;
1366;SDS011;16877;48.810;9.282;2023-11-21T10:32:37;3.17;;;2.10;;
1366;SDS011;16877;48.810;9.282;2023-11-21T10:35:05;3.03;;;1.80;;
1366;SDS011;16877;48.810;9.282;2023-11-21T10:37:35;3.47;;;1.80;;
1366;SDS011;16877;48.810;9.282;2023-11-21T10:40:04;4.20;;;2.73;;
1366;SDS011;16877;48.810;9.282;2023-11-21T10:42:32;3.97;;;2.60;;
1366;SDS011;16877;48.810;9.282;2023-11-21T10:45:00;3.20;;;1.80;;
1366;SDS011;16877;48.810;9.282;2023-11-21T10:47:28;3.23;;;2.07;;
1366;SDS011;16877;48.810;9.282;2023-11-21T10:49:55;3.43;;;2.17;;
1366;SDS011;16877;48.810;9.282;2023-11-21T10:52:22;3.10;;;1.77;;
1366;SDS011;16877;48.810;9.282;2023-11-21T10:54:53;3.70;;;1.77;;
1366;SDS011;16877;48.810;9.282;2023-11-21T10:57:20;2.43;;;1.50;;
1366;SDS011;16877;48.810;9.282;2023-11-21T10:59:48;2.20;;;1.03;;
1366;SDS011;16877;48.810;9.282;2023-11-21T11:02:21;2.30;;;1.33;;
1366;SDS011;16877;48.810;9.282;2023-11-21T11:04:53;2.83;;;1.30;;
1366;SDS011;16877;48.810;9.282;2023-11-21T11:07:21;2.50;;;1.27;;
1366;SDS011;16877;48.810;9.282;2023-11-21T11:09:52;2.37;;;1.20;;
1366;SDS011;16877;48.810;9.282;2023-11-21T11:12:19;3.03;;;1.70;;
1366;SDS011;16877;48.810;9.282;2023-11-21T11:14:45;3.07;;;1.70;;
1366;SDS011;16877;48.810;9.282;2023-11-21T11:17:13;2.63;;;1.50;;
1366;SDS011;16877;48.810;9.282;2023-11-21T11:19:42;2.47;;;1.60;;
1366;SDS011;16877;48.810;9.282;2023-11-21T11:22:13;3.57;;;1.20;;
1366;SDS011;16877;48.810;9.282;2023-11-21T11:24:57;2.50;;;1.30;;
1366;SDS011;16877;48.810;9.282;2023-11-21T11:27:48;2.40;;;1.17;;
1366;SDS011;16877;48.810;9.282;2023-11-21T11:30:23;2.53;;;1.23;;
1366;SDS011;16877;48.810;9.282;2023-11-21T11:33:04;3.77;;;1.30;;
1366;SDS011;16877;48.810;9.282;2023-11-21T11:35:41;2.00;;;1.17;;
1366;SDS011;16877;48.810;9.282;2023-11-21T11:38:16;2.10;;;1.13;;
1366;SDS011;16877;48.810;9.282;2023-11-21T11:40:44;2.47;;;1.00;;
1366;SDS011;16877;48.810;9.282;2023-11-21T11:43:12;2.10;;;0.90;;
1366;SDS011;16877;48.810;9.282;2023-11-21T11:45:39;2.40;;;1.37;;
1366;SDS011;16877;48.810;9.282;2023-11-21T11:48:06;3.67;;;1.30;;
1366;SDS011;16877;48.810;9.282;2023-11-21T11:50:33;3.03;;;1.03;;
1366;SDS011;16877;48.810;9.282;2023-11-21T11:53:13;2.00;;;1.13;;
1366;SDS011;16877;48.810;9.282;2023-11-21T11:55:40;2.67;;;1.10;;
1366;SDS011;16877;48.810;9.282;2023-11-21T11:58:07;2.33;;;1.10;;
1366;SDS011;16877;48.810;9.282;2023-11-21T12:00:34;2.27;;;1.03;;
1366;SDS011;16877;48.810;9.282;2023-11-21T12:03:03;3.07;;;1.17;;
1366;SDS011;16877;48.810;9.282;2023-11-21T12:05:32;2.00;;;1.00;;
1366;SDS011;16877;48.810;9.282;2023-11-21T12:08:04;2.43;;;1.40;;
1366;SDS011;16877;48.810;9.282;2023-11-21T12:10:33;2.23;;;1.10;;
1366;SDS011;16877;48.810;9.282;2023-11-21T12:13:07;4.03;;;1.10;;
1366;SDS011;16877;48.810;9.282;2023-11-21T12:15:35;2.03;;;1.00;;
1366;SDS011;16877;48.810;9.282;2023-11-21T12:18:03;2.73;;;1.33;;
1366;SDS011;16877;48.810;9.282;2023-11-21T12:20:30;4.00;;;1.30;;
1366;SDS011;16877;48.810;9.282;2023-11-21T12:23:03;2.30;;;1.17;;
1366;SDS011;16877;48.810;9.282;2023-11-21T12:25:32;3.00;;;1.00;;
1366;SDS011;16877;48.810;9.282;2023-11-21T12:28:00;2.70;;;1.60;;
1366;SDS011;16877;48.810;9.282;2023-11-21T12:30:28;2.27;;;1.00;;
1366;SDS011;16877;48.810;9.282;2023-11-21T12:32:56;1.90;;;0.83;;
1366;SDS011;16877;48.810;9.282;2023-11-21T12:35:25;1.93;;;0.87;;
1366;SDS011;16877;48.810;9.282;2023-11-21T12:37:53;2.93;;;0.83;;
1366;SDS011;16877;48.810;9.282;2023-11-21T12:40:22;3.00;;;1.27;;
1366;SDS011;16877;48.810;9.282;2023-11-21T12:42:50;2.40;;;1.40;;
1366;SDS011;16877;48.810;9.282;2023-11-21T12:45:19;4.80;;;1.10;;
1366;SDS011;16877;48.810;9.282;2023-11-21T12:47:47;2.70;;;1.20;;
1366;SDS011;16877;48.810;9.282;2023-11-21T12:50:14;3.97;;;1.40;;
1366;SDS011;16877;48.810;9.282;2023-11-21T12:52:42;5.83;;;1.40;;
1366;SDS011;16877;48.810;9.282;2023-11-21T12:55:15;2.30;;;1.00;;
1366;SDS011;16877;48.810;9.282;2023-11-21T12:57:43;2.20;;;1.00;;
1366;SDS011;16877;48.810;9.282;2023-11-21T13:00:13;2.27;;;1.20;;
1366;SDS011;16877;48.810;9.282;2023-11-21T13:02:52;2.23;;;1.17;;
1366;SDS011;16877;48.810;9.282;2023-11-21T13:05:25;7.00;;;1.43;;
1366;SDS011;16877;48.810;9.282;2023-11-21T13:07:55;2.77;;;1.20;;
1366;SDS011;16877;48.810;9.282;2023-11-21T13:10:24;2.17;;;0.97;;
1366;SDS011;16877;48.810;9.282;2023-11-21T13:12:55;2.10;;;1.00;;
1366;SDS011;16877;48.810;9.282;2023-11-21T13:15:26;2.10;;;1.40;;
1366;SDS011;16877;48.810;9.282;2023-11-21T13:17:53;1.97;;;1.00;;
1366;SDS011;16877;48.810;9.282;2023-11-21T13:20:21;1.80;;;0.80;;
1366;SDS011;16877;48.810;9.282;2023-11-21T13:22:49;1.90;;;0.70;;
1366;SDS011;16877;48.810;9.282;2023-11-21T13:25:19;2.40;;;1.20;;
1366;SDS011;16877;48.810;9.282;2023-11-21T13:27:46;2.20;;;1.37;;
1366;SDS011;16877;48.810;9.282;2023-11-21T13:30:13;2.00;;;1.10;;
1366;SDS011;16877;48.810;9.282;2023-11-21T13:32:42;2.37;;;1.00;;
1366;SDS011;16877;48.810;9.282;2023-11-21T13:35:10;3.27;;;1.27;;
1366;SDS011;16877;48.810;9.282;2023-11-21T13:37:46;2.20;;;0.97;;
1366;SDS011;16877;48.810;9.282;2023-11-21T13:40:21;2.63;;;1.50;;
1366;SDS011;16877;48.810;9.282;2023-11-21T13:42:50;2.63;;;1.57;;
1366;SDS011;16877;48.810;9.282;2023-11-21T13:45:19;2.30;;;1.30;;
1366;SDS011;16877;48.810;9.282;2023-11-21T13:47:49;2.70;;;1.57;;
1366;SDS011;16877;48.810;9.282;2023-11-21T13:50:22;2.43;;;1.67;;
1366;SDS011;16877;48.810;9.282;2023-11-21T13:52:54;2.23;;;1.27;;
1366;SDS011;16877;48.810;9.282;2023-11-21T13:55:20;2.30;;;1.20;;
1366;SDS011;16877;48.810;9.282;2023-11-21T13:57:50;2.23;;;1.20;;
1366;SDS011;16877;48.810;9.282;2023-11-21T14:00:17;3.10;;;1.97;;
1366;SDS011;16877;48.810;9.282;2023-11-21T14:03:10;2.73;;;1.63;;
1366;SDS011;16877;48.810;9.282;2023-11-21T14:05:44;3.00;;;1.80;;
1366;SDS011;16877;48.810;9.282;2023-11-21T14:08:12;3.30;;;2.00;;
1366;SDS011;16877;48.810;9.282;2023-11-21T14:10:41;7.30;;;2.10;;
1366;SDS011;16877;48.810;9.282;2023-11-21T14:13:09;2.70;;;1.87;;
1366;SDS011;16877;48.810;9.282;2023-11-21T14:15:38;3.17;;;1.50;;
1366;SDS011;16877;48.810;9.282;2023-11-21T14:18:08;2.30;;;1.40;;
1366;SDS011;16877;48.810;9.282;2023-11-21T14:20:37;2.33;;;1.47;;
1366;SDS011;16877;48.810;9.282;2023-11-21T14:23:05;3.07;;;1.47;;
1366;SDS011;16877;48.810;9.282;2023-11-21T14:25:31;2.00;;;1.10;;
1366;SDS011;16877;48.810;9.282;2023-11-21T14:27:58;2.37;;;1.37;;
1366;SDS011;16877;48.810;9.282;2023-11-21T14:30:25;2.40;;;1.30;;
1366;SDS011;16877;48.810;9.282;2023-11-21T14:32:53;2.03;;;1.10;;
1366;SDS011;16877;48.810;9.282;2023-11-21T14:35:20;2.17;;;1.00;;
1366;SDS011;16877;48.810;9.282;2023-11-21T14:37:49;1.97;;;1.00;;
1366;SDS011;16877;48.810;9.282;2023-11-21T14:40:16;2.20;;;0.90;;
1366;SDS011;16877;48.810;9.282;2023-11-21T14:42:46;2.20;;;1.13;;
1366;SDS011;16877;48.810;9.282;2023-11-21T14:45:13;2.20;;;0.90;;
1366;SDS011;16877;48.810;9.282;2023-11-21T14:47:45;1.73;;;0.77;;
1366;SDS011;16877;48.810;9.282;2023-11-21T14:50:19;1.97;;;0.87;;
1366;SDS011;16877;48.810;9.282;2023-11-21T14:53:16;2.00;;;0.90;;
1366;SDS011;16877;48.810;9.282;2023-11-21T14:55:53;1.70;;;0.70;;
1366;SDS011;16877;48.810;9.282;2023-11-21T14:58:24;1.80;;;0.80;;
1366;SDS011;16877;48.810;9.282;2023-11-21T15:00:53;3.37;;;1.00;;
1366;SDS011;16877;48.810;9.282;2023-11-21T15:03:23;1.70;;;0.80;;
1366;SDS011;16877;48.810;9.282;2023-11-21T15:06:04;1.70;;;0.63;;
1366;SDS011;16877;48.810;9.282;2023-11-21T15:08:47;1.90;;;0.70;;
1366;SDS011;16877;48.810;9.282;2023-11-21T15:11:18;1.77;;;0.70;;
1366;SDS011;16877;48.810;9.282;2023-11-21T15:13:50;2.57;;;1.17;;
1366;SDS011;16877;48.810;9.282;2023-11-21T15:16:17;1.93;;;0.97;;
1366;SDS011;16877;48.810;9.282;2023-11-21T15:18:44;1.90;;;0.93;;
1366;SDS011;16877;48.810;9.282;2023-11-21T15:21:11;3.30;;;1.40;;
1366;SDS011;16877;48.810;9.282;2023-11-21T15:23:38;4.17;;;1.70;;